Greenfield Center, New York
Current Conditions -  °F | °C
As of 9:53 PM on Wednesday 22 Oct 2014 (Local Time) from KGFL Reporting Station
Overcast Overcast  
Wind Chill: 52°   Ceiling: 3600
Heat Index: 52°   Visibility: 10mi
Dew Point: 42°   Wind: 21mph
Humidity: 69%   Direction: 10°N
Pressure: 29.99"   Gusts: 30mph
Location:  43.13°N, 73.85°W
Report Text: KGFL 230153Z AUTO 01018G26KT 10SM OVC036 11/06 A2999 RMK AO2 PK WND 01026/0153 RAE04 SLP159 P0000 T01110056
Loading
Personal Weather Stations






























Interactive Weather Map New forecast layout! Learn more

10-Day Weather Forecast

Advertisements
Track Severe Weather on mobile